createdAt,value
2023-01-29T00:02:00.636Z,102636.63
2023-01-29T00:04:27.983Z,102645.59
2023-01-29T00:06:55.232Z,102643.13
2023-01-29T00:09:22.744Z,102649.78
2023-01-29T00:11:50.004Z,102647.06
2023-01-29T00:14:17.616Z,102641.91
2023-01-29T00:16:45.388Z,102650.69
2023-01-29T00:19:12.576Z,102639.44
2023-01-29T00:21:39.965Z,102644.38
2023-01-29T00:24:07.530Z,102643.72
2023-01-29T00:26:34.842Z,102648.28
2023-01-29T00:29:02.993Z,102635.47
2023-01-29T00:31:30.854Z,102636.59
2023-01-29T00:33:58.744Z,102639.72
2023-01-29T00:36:27.113Z,102634.00
2023-01-29T00:38:59.914Z,102649.53
2023-01-29T00:41:50.656Z,102647.38
2023-01-29T00:44:37.645Z,102634.78
2023-01-29T00:47:25.818Z,102643.34
2023-01-29T00:49:53.367Z,102627.56
2023-01-29T00:52:26.666Z,102630.28
2023-01-29T00:54:59.096Z,102626.47
2023-01-29T00:57:28.698Z,102624.78
2023-01-29T00:59:57.389Z,102618.03
2023-01-29T01:02:43.890Z,102626.47
2023-01-29T01:05:18.786Z,102628.94
2023-01-29T01:07:52.867Z,102636.47
2023-01-29T01:10:27.904Z,102630.06
2023-01-29T01:12:58.791Z,102632.19
2023-01-29T01:15:29.381Z,102638.03
2023-01-29T01:17:59.910Z,102619.91
2023-01-29T01:20:30.151Z,102624.28
2023-01-29T01:22:58.779Z,102634.22
2023-01-29T01:25:27.734Z,102622.28
2023-01-29T01:27:57.600Z,102629.25
2023-01-29T01:30:25.805Z,102637.22
2023-01-29T01:32:53.478Z,102630.25
2023-01-29T01:35:20.920Z,102621.38
2023-01-29T01:37:48.042Z,102623.50
2023-01-29T01:40:18.941Z,102634.63
2023-01-29T01:42:56.784Z,102633.59
2023-01-29T01:45:34.716Z,102648.53
2023-01-29T01:48:14.634Z,102646.84
2023-01-29T01:50:47.241Z,102650.47
2023-01-29T01:53:22.014Z,102632.47
2023-01-29T01:55:52.946Z,102656.41
2023-01-29T01:58:30.587Z,102663.72
2023-01-29T02:00:59.295Z,102661.00
2023-01-29T02:03:50.165Z,102659.97
2023-01-29T02:06:36.571Z,102659.53
2023-01-29T02:09:27.575Z,102661.09
2023-01-29T02:11:55.506Z,102668.38
2023-01-29T02:14:23.052Z,102662.69
2023-01-29T02:16:50.416Z,102666.06
2023-01-29T02:19:42.593Z,102664.25
2023-01-29T02:22:38.956Z,102659.72
2023-01-29T02:25:42.785Z,102661.22
2023-01-29T02:28:22.401Z,102664.50
2023-01-29T02:31:29.798Z,102662.53
2023-01-29T02:34:14.296Z,102675.69
2023-01-29T02:36:48.514Z,102655.75
2023-01-29T02:39:36.693Z,102637.63
2023-01-29T02:42:13.021Z,102665.78
2023-01-29T02:45:29.742Z,102673.56
2023-01-29T02:48:02.420Z,102663.50
2023-01-29T02:50:45.226Z,102665.38
2023-01-29T02:53:19.665Z,102681.00
2023-01-29T02:55:57.543Z,102675.13
2023-01-29T02:58:43.135Z,102670.53
2023-01-29T03:01:17.261Z,102675.31
2023-01-29T03:03:51.091Z,102665.13
2023-01-29T03:06:26.680Z,102658.03
2023-01-29T03:08:59.449Z,102679.72
2023-01-29T03:11:32.343Z,102676.59
2023-01-29T03:14:13.718Z,102662.66
2023-01-29T03:16:48.229Z,102631.31
2023-01-29T03:19:34.902Z,102676.34
2023-01-29T03:22:08.766Z,102669.13
2023-01-29T03:25:03.727Z,102667.03
2023-01-29T03:27:59.772Z,102675.56
2023-01-29T03:30:55.696Z,102678.34
2023-01-29T03:33:39.635Z,102674.34
2023-01-29T03:36:13.651Z,102679.41
2023-01-29T03:38:41.136Z,102673.38
2023-01-29T03:41:17.392Z,102675.91
2023-01-29T03:44:13.406Z,102667.25
2023-01-29T03:46:53.108Z,102683.00
2023-01-29T03:49:39.529Z,102681.31
2023-01-29T03:52:20.312Z,102680.72
2023-01-29T03:54:58.237Z,102680.34
2023-01-29T03:57:36.932Z,102672.41
2023-01-29T04:00:24.079Z,102685.47
2023-01-29T04:03:17.613Z,102672.72
2023-01-29T04:05:52.249Z,102668.22
2023-01-29T04:08:29.691Z,102679.81
2023-01-29T04:11:08.049Z,102685.63
2023-01-29T04:13:36.968Z,102683.53
2023-01-29T04:16:08.894Z,102683.66
2023-01-29T04:19:01.189Z,102676.16
2023-01-29T04:21:34.368Z,102680.28
2023-01-29T04:24:02.542Z,102684.94
2023-01-29T04:26:58.983Z,102677.38
2023-01-29T04:29:44.112Z,102690.28
2023-01-29T04:32:28.000Z,102692.72
2023-01-29T04:35:17.434Z,102690.03
2023-01-29T04:37:57.167Z,102691.44
2023-01-29T04:40:29.198Z,102689.59
2023-01-29T04:42:56.586Z,102682.63
2023-01-29T04:45:29.069Z,102680.78
2023-01-29T04:48:05.707Z,102689.25
2023-01-29T04:50:41.117Z,102679.09
2023-01-29T04:53:17.195Z,102683.84
2023-01-29T04:55:51.341Z,102678.31
2023-01-29T04:58:32.942Z,102677.28
2023-01-29T05:01:02.588Z,102675.13
2023-01-29T05:03:32.970Z,102659.69
2023-01-29T05:06:02.946Z,102684.66
2023-01-29T05:08:32.404Z,102686.84
2023-01-29T05:11:00.528Z,102681.19
2023-01-29T05:13:32.181Z,102671.03
2023-01-29T05:16:15.601Z,102678.34
2023-01-29T05:18:43.524Z,102685.84
2023-01-29T05:21:10.988Z,102690.50
2023-01-29T05:23:38.195Z,102671.31
2023-01-29T05:26:06.714Z,102665.75
2023-01-29T05:28:34.365Z,102682.53
2023-01-29T05:31:01.773Z,102688.44
2023-01-29T05:33:31.580Z,102669.34
2023-01-29T05:35:59.909Z,102676.97
2023-01-29T05:38:27.125Z,102666.38
2023-01-29T05:40:54.908Z,102670.59
2023-01-29T05:43:26.273Z,102676.56
2023-01-29T05:45:58.182Z,102681.34
2023-01-29T05:48:27.850Z,102688.97
2023-01-29T05:50:55.338Z,102693.09
2023-01-29T05:53:22.606Z,102691.91
2023-01-29T05:55:49.931Z,102690.25
2023-01-29T05:58:17.845Z,102696.06
2023-01-29T06:00:44.987Z,102694.41
2023-01-29T06:03:12.434Z,102698.34
2023-01-29T06:05:40.497Z,102689.47
2023-01-29T06:08:09.008Z,102686.38
2023-01-29T06:10:36.806Z,102688.56
2023-01-29T06:13:04.299Z,102686.56
2023-01-29T06:15:31.659Z,102686.75
2023-01-29T06:17:58.738Z,102686.91
2023-01-29T06:20:26.460Z,102694.25
2023-01-29T06:22:53.715Z,102690.81
2023-01-29T06:25:20.881Z,102686.84
2023-01-29T06:27:51.464Z,102694.41
2023-01-29T06:30:19.075Z,102695.84
2023-01-29T06:32:46.541Z,102689.94
2023-01-29T06:35:14.323Z,102689.28
2023-01-29T06:37:41.674Z,102696.09
2023-01-29T06:40:09.244Z,102695.19
2023-01-29T06:42:36.650Z,102689.78
2023-01-29T06:45:05.040Z,102696.34
2023-01-29T06:47:32.754Z,102698.94
2023-01-29T06:50:00.693Z,102708.72
2023-01-29T06:52:29.287Z,102714.16
2023-01-29T06:54:57.098Z,102707.69
2023-01-29T06:57:24.645Z,102717.25
2023-01-29T06:59:52.072Z,102713.63
2023-01-29T07:02:19.442Z,102707.34
2023-01-29T07:04:46.934Z,102713.25
2023-01-29T07:07:14.399Z,102710.84
2023-01-29T07:09:42.704Z,102717.03
2023-01-29T07:12:11.326Z,102709.41
2023-01-29T07:14:38.844Z,102711.38
2023-01-29T07:17:06.309Z,102722.84
2023-01-29T07:19:34.098Z,102722.19
2023-01-29T07:22:03.523Z,102718.22
2023-01-29T07:24:31.003Z,102719.88
2023-01-29T07:27:00.757Z,102739.09
2023-01-29T07:29:28.010Z,102735.22
2023-01-29T07:31:55.287Z,102739.47
2023-01-29T07:34:22.793Z,102740.09
2023-01-29T07:36:52.916Z,102739.22
2023-01-29T07:39:20.260Z,102749.66
2023-01-29T07:41:47.455Z,102747.59
2023-01-29T07:44:17.748Z,102757.94
2023-01-29T07:46:45.014Z,102758.03
2023-01-29T07:49:12.286Z,102762.94
2023-01-29T07:51:39.573Z,102765.41
2023-01-29T07:54:06.730Z,102777.66
2023-01-29T07:56:34.104Z,102776.34
2023-01-29T07:59:01.252Z,102773.00
2023-01-29T08:01:28.590Z,102777.38
2023-01-29T08:03:55.689Z,102776.34
2023-01-29T08:06:22.973Z,102776.22
2023-01-29T08:08:50.592Z,102777.50
2023-01-29T08:11:17.831Z,102790.00
2023-01-29T08:13:45.978Z,102789.66
2023-01-29T08:16:13.818Z,102795.84
2023-01-29T08:18:44.401Z,102787.06
2023-01-29T08:21:13.071Z,102788.34
2023-01-29T08:23:42.665Z,102775.22
2023-01-29T08:26:10.776Z,102782.44
2023-01-29T08:28:39.137Z,102787.34
2023-01-29T08:31:17.030Z,102790.41
2023-01-29T08:33:44.305Z,102791.03
2023-01-29T08:36:11.576Z,102800.31
2023-01-29T08:38:39.032Z,102778.28
2023-01-29T08:41:06.949Z,102804.84
2023-01-29T08:43:37.285Z,102806.78
2023-01-29T08:46:06.183Z,102810.25
2023-01-29T08:48:33.750Z,102807.16
2023-01-29T08:51:02.870Z,102805.09
2023-01-29T08:53:30.644Z,102804.72
2023-01-29T08:55:57.932Z,102816.94
2023-01-29T08:58:25.264Z,102822.38
2023-01-29T09:00:52.671Z,102824.03
2023-01-29T09:03:19.966Z,102823.41
2023-01-29T09:05:47.387Z,102833.31
2023-01-29T09:08:16.214Z,102810.50
2023-01-29T09:10:43.817Z,102830.09
2023-01-29T09:13:11.370Z,102833.59
2023-01-29T09:15:39.080Z,102837.06
2023-01-29T09:18:06.952Z,102838.59
2023-01-29T09:20:34.776Z,102843.38
2023-01-29T09:23:09.577Z,102841.03
2023-01-29T09:25:38.330Z,102830.72
2023-01-29T09:28:06.587Z,102841.53
2023-01-29T09:30:35.052Z,102844.13
2023-01-29T09:33:02.310Z,102848.09
2023-01-29T09:35:30.014Z,102846.25
2023-01-29T09:37:57.552Z,102836.91
2023-01-29T09:40:28.694Z,102846.06
2023-01-29T09:43:07.133Z,102844.47
2023-01-29T09:45:36.231Z,102854.81
2023-01-29T09:48:06.220Z,102856.59
2023-01-29T09:50:41.042Z,102852.03
2023-01-29T09:53:41.214Z,102821.31
2023-01-29T09:56:22.652Z,102859.28
2023-01-29T09:58:50.377Z,102853.53
2023-01-29T10:01:33.352Z,102856.13
2023-01-29T10:04:07.109Z,102856.94
2023-01-29T10:07:21.475Z,102856.16
2023-01-29T10:10:00.273Z,102834.06
2023-01-29T10:12:45.570Z,102851.91
2023-01-29T10:15:53.619Z,102855.53
2023-01-29T10:18:48.046Z,102844.28
2023-01-29T10:21:18.405Z,102830.97
2023-01-29T10:23:54.667Z,102850.53
2023-01-29T10:26:27.594Z,102843.44
2023-01-29T10:28:59.417Z,102860.38
2023-01-29T10:31:38.997Z,102855.94
2023-01-29T10:34:21.806Z,102835.38
2023-01-29T10:36:50.408Z,102847.94
2023-01-29T10:39:22.843Z,102852.03
2023-01-29T10:42:14.655Z,102854.50
2023-01-29T10:44:45.049Z,102847.78
2023-01-29T10:47:31.420Z,102848.22
2023-01-29T10:50:18.852Z,102844.53
2023-01-29T10:53:10.976Z,102831.88
2023-01-29T10:55:57.515Z,102842.53
2023-01-29T10:59:07.027Z,102839.88
2023-01-29T11:01:36.764Z,102837.03
2023-01-29T11:04:08.460Z,102832.03
2023-01-29T11:06:38.847Z,102830.44
2023-01-29T11:12:05.944Z,102800.13
2023-01-29T11:14:53.153Z,102792.84
2023-01-29T11:17:27.593Z,102806.38
2023-01-29T11:20:03.271Z,102792.88
2023-01-29T11:22:35.628Z,102792.53
2023-01-29T11:25:24.458Z,102792.50
2023-01-29T11:28:05.826Z,102782.72
2023-01-29T11:30:40.137Z,102786.09
2023-01-29T11:33:22.681Z,102782.75
2023-01-29T11:35:54.867Z,102781.31
2023-01-29T11:38:26.784Z,102754.50
2023-01-29T11:41:07.604Z,102768.69
2023-01-29T11:43:36.469Z,102762.94
2023-01-29T11:46:09.188Z,102765.91
2023-01-29T11:48:59.086Z,102736.28
2023-01-29T11:51:31.125Z,102765.09
2023-01-29T11:54:01.326Z,102757.44
2023-01-29T11:56:42.411Z,102773.28
2023-01-29T11:59:52.659Z,102747.88
2023-01-29T12:02:38.307Z,102736.06
2023-01-29T12:05:16.485Z,102740.22
2023-01-29T12:07:51.095Z,102734.84
2023-01-29T12:10:43.397Z,102737.31
2023-01-29T12:13:12.187Z,102733.13
2023-01-29T12:15:46.017Z,102691.72
2023-01-29T12:19:00.931Z,102719.50
2023-01-29T12:21:50.801Z,102709.84
2023-01-29T12:24:43.264Z,102717.91
2023-01-29T12:27:21.256Z,102688.28
2023-01-29T12:30:19.010Z,102704.66
2023-01-29T12:33:03.413Z,102685.50
2023-01-29T12:35:43.216Z,102695.88
2023-01-29T12:38:25.975Z,102678.16
2023-01-29T12:41:09.885Z,102705.16
2023-01-29T12:43:49.379Z,102712.69
2023-01-29T12:46:33.873Z,102702.34
2023-01-29T12:49:10.260Z,102708.53
2023-01-29T12:51:52.144Z,102707.53
2023-01-29T12:54:27.570Z,102703.03
2023-01-29T12:57:05.552Z,102692.09
2023-01-29T12:59:45.489Z,102688.78
2023-01-29T13:02:24.506Z,102696.09
2023-01-29T13:05:15.332Z,102682.84
2023-01-29T13:07:50.992Z,102681.50
2023-01-29T13:10:31.240Z,102671.25
2023-01-29T13:13:17.846Z,102658.13
2023-01-29T13:15:47.882Z,102669.72
2023-01-29T13:18:16.108Z,102670.00
2023-01-29T13:20:45.773Z,102670.69
2023-01-29T13:23:39.625Z,102666.50
2023-01-29T13:26:08.759Z,102649.41
2023-01-29T13:28:37.448Z,102659.69
2023-01-29T13:31:40.995Z,102658.34
2023-01-29T13:34:26.677Z,102647.25
2023-01-29T13:37:02.415Z,102647.91
2023-01-29T13:39:45.942Z,102639.84
2023-01-29T13:42:23.281Z,102653.22
2023-01-29T13:44:58.151Z,102641.56
2023-01-29T13:47:31.930Z,102637.94
2023-01-29T13:50:12.578Z,102618.63
2023-01-29T13:53:03.413Z,102654.78
2023-01-29T13:55:43.059Z,102640.44
2023-01-29T13:58:38.700Z,102640.75
2023-01-29T14:01:08.295Z,102645.94
2023-01-29T14:04:03.802Z,102627.50
2023-01-29T14:06:46.199Z,102638.25
2023-01-29T14:09:35.877Z,102655.13
2023-01-29T14:12:26.739Z,102648.63
2023-01-29T14:14:58.827Z,102643.09
2023-01-29T14:17:39.360Z,102648.22
2023-01-29T14:20:38.717Z,102648.00
2023-01-29T14:23:41.320Z,102616.38
2023-01-29T14:26:46.807Z,102649.25
2023-01-29T14:29:34.196Z,102649.75
2023-01-29T14:32:17.877Z,102661.25
2023-01-29T14:34:51.860Z,102661.78
2023-01-29T14:37:30.034Z,102661.47
2023-01-29T14:40:14.175Z,102615.22
2023-01-29T14:43:00.524Z,102650.41
2023-01-29T14:45:40.379Z,102608.03
2023-01-29T14:48:11.445Z,102669.78
2023-01-29T14:50:53.080Z,102659.81
2023-01-29T14:53:36.689Z,102663.19
2023-01-29T14:56:16.518Z,102658.63
2023-01-29T14:58:56.211Z,102667.00
2023-01-29T15:01:36.014Z,102643.66
2023-01-29T15:04:04.639Z,102660.34
2023-01-29T15:07:11.607Z,102668.06
2023-01-29T15:09:47.076Z,102665.59
2023-01-29T15:12:26.989Z,102666.88
2023-01-29T15:14:57.592Z,102670.72
2023-01-29T15:17:52.534Z,102668.72
2023-01-29T15:20:35.550Z,102657.19
2023-01-29T15:23:04.362Z,102653.53
2023-01-29T15:25:40.215Z,102660.09
2023-01-29T15:28:16.711Z,102671.78
2023-01-29T15:30:47.327Z,102666.19
2023-01-29T15:33:15.622Z,102664.91
2023-01-29T15:35:44.016Z,102673.47
2023-01-29T15:38:30.026Z,102653.19
2023-01-29T15:41:21.703Z,102648.94
2023-01-29T15:43:51.968Z,102670.66
2023-01-29T15:46:26.757Z,102668.44
2023-01-29T15:48:56.571Z,102689.41
2023-01-29T15:51:27.595Z,102683.31
2023-01-29T15:54:06.227Z,102688.31
2023-01-29T15:56:51.393Z,102691.25
2023-01-29T15:59:23.167Z,102688.03
2023-01-29T16:01:50.754Z,102690.28
2023-01-29T16:04:30.082Z,102696.59
2023-01-29T16:07:01.231Z,102693.63
2023-01-29T16:09:30.077Z,102692.78
2023-01-29T16:11:59.701Z,102696.78
2023-01-29T16:14:28.935Z,102698.16
2023-01-29T16:16:56.624Z,102689.28
2023-01-29T16:19:29.586Z,102660.72
2023-01-29T16:22:03.694Z,102700.72
2023-01-29T16:24:35.073Z,102693.41
2023-01-29T16:27:15.130Z,102686.63
2023-01-29T16:29:42.906Z,102688.63
2023-01-29T16:32:14.465Z,102683.59
2023-01-29T16:34:49.130Z,102688.09
2023-01-29T16:37:25.905Z,102696.47
2023-01-29T16:39:53.878Z,102702.88
2023-01-29T16:42:27.089Z,102711.16
2023-01-29T16:45:03.763Z,102711.81
2023-01-29T16:47:41.868Z,102694.06
2023-01-29T16:50:46.305Z,102711.22
2023-01-29T16:53:26.535Z,102709.91
2023-01-29T16:55:55.191Z,102716.22
2023-01-29T16:58:27.052Z,102708.47
2023-01-29T17:01:00.884Z,102709.81
2023-01-29T17:03:32.172Z,102716.94
2023-01-29T17:06:09.470Z,102720.16
2023-01-29T17:08:41.134Z,102690.06
2023-01-29T17:11:10.218Z,102726.16
2023-01-29T17:13:45.138Z,102726.06
2023-01-29T17:16:22.030Z,102729.91
2023-01-29T17:18:50.782Z,102718.34
2023-01-29T17:21:18.797Z,102728.56
2023-01-29T17:23:47.228Z,102732.09
2023-01-29T17:26:15.918Z,102730.94
2023-01-29T17:28:45.640Z,102730.72
2023-01-29T17:31:14.418Z,102742.34
2023-01-29T17:33:45.295Z,102737.59
2023-01-29T17:36:20.301Z,102717.00
2023-01-29T17:39:01.625Z,102739.16
2023-01-29T17:41:32.235Z,102742.91
2023-01-29T17:44:04.920Z,102741.34
2023-01-29T17:46:34.960Z,102740.44
2023-01-29T17:49:08.543Z,102743.50
2023-01-29T17:51:40.183Z,102742.81
2023-01-29T17:54:08.312Z,102753.97
2023-01-29T17:56:35.563Z,102750.94
2023-01-29T17:59:03.250Z,102751.41
2023-01-29T18:01:30.619Z,102755.56
2023-01-29T18:03:58.135Z,102750.91
2023-01-29T18:06:29.408Z,102757.91
2023-01-29T18:09:00.561Z,102763.53
2023-01-29T18:11:28.804Z,102760.84
2023-01-29T18:13:57.243Z,102754.16
2023-01-29T18:16:25.319Z,102762.16
2023-01-29T18:18:53.390Z,102725.75
2023-01-29T18:21:20.858Z,102765.28
2023-01-29T18:23:48.377Z,102765.59
2023-01-29T18:26:16.967Z,102750.25
2023-01-29T18:28:44.347Z,102782.94
2023-01-29T18:31:13.939Z,102776.94
2023-01-29T18:33:41.638Z,102782.31
2023-01-29T18:36:09.505Z,102781.72
2023-01-29T18:38:36.833Z,102780.88
2023-01-29T18:41:12.889Z,102789.41
2023-01-29T18:43:43.448Z,102784.31
2023-01-29T18:46:11.836Z,102787.66
2023-01-29T18:48:42.591Z,102794.63
2023-01-29T18:51:11.214Z,102797.16
2023-01-29T18:53:39.325Z,102791.91
2023-01-29T18:56:09.329Z,102788.47
2023-01-29T18:58:37.738Z,102794.66
2023-01-29T19:01:10.175Z,102795.75
2023-01-29T19:03:40.141Z,102795.41
2023-01-29T19:06:11.383Z,102805.84
2023-01-29T19:08:40.712Z,102803.16
2023-01-29T19:11:09.745Z,102810.91
2023-01-29T19:13:39.661Z,102823.31
2023-01-29T19:16:15.190Z,102818.91
2023-01-29T19:18:43.786Z,102812.09
2023-01-29T19:21:16.236Z,102820.34
2023-01-29T19:23:45.024Z,102824.09
2023-01-29T19:26:13.952Z,102819.69
2023-01-29T19:28:42.051Z,102816.41
2023-01-29T19:31:10.250Z,102822.19
2023-01-29T19:33:38.325Z,102810.72
2023-01-29T19:36:06.209Z,102830.56
2023-01-29T19:38:38.150Z,102829.38
2023-01-29T19:41:08.350Z,102836.06
2023-01-29T19:43:35.920Z,102832.72
2023-01-29T19:46:03.942Z,102842.06
2023-01-29T19:48:35.100Z,102830.44
2023-01-29T19:51:11.238Z,102845.28
2023-01-29T19:53:45.141Z,102849.31
2023-01-29T19:56:16.227Z,102847.94
2023-01-29T19:58:45.393Z,102849.06
2023-01-29T20:01:22.465Z,102829.75
2023-01-29T20:03:52.632Z,102839.56
2023-01-29T20:06:25.408Z,102841.47
2023-01-29T20:08:53.804Z,102843.56
2023-01-29T20:11:23.406Z,102834.75
2023-01-29T20:13:55.022Z,102795.38
2023-01-29T20:16:25.565Z,102850.13
2023-01-29T20:18:53.193Z,102857.25
2023-01-29T20:21:23.265Z,102857.44
2023-01-29T20:24:00.014Z,102863.28
2023-01-29T20:26:34.013Z,102868.63
2023-01-29T20:29:01.884Z,102864.66
2023-01-29T20:31:30.192Z,102857.50
2023-01-29T20:33:58.939Z,102855.09
2023-01-29T20:36:32.099Z,102858.72
2023-01-29T20:39:00.227Z,102862.94
2023-01-29T20:41:28.103Z,102858.34
2023-01-29T20:43:55.412Z,102855.75
2023-01-29T20:46:22.838Z,102851.88
2023-01-29T20:48:53.754Z,102852.22
2023-01-29T20:51:22.040Z,102849.41
2023-01-29T20:53:51.485Z,102852.31
2023-01-29T20:56:23.706Z,102848.44
2023-01-29T20:59:03.765Z,102850.78
2023-01-29T21:01:31.543Z,102860.03
2023-01-29T21:03:58.977Z,102869.00
2023-01-29T21:06:29.907Z,102866.69
2023-01-29T21:09:01.573Z,102863.06
2023-01-29T21:11:29.115Z,102863.50
2023-01-29T21:13:58.784Z,102856.69
2023-01-29T21:16:28.885Z,102866.00
2023-01-29T21:19:00.171Z,102860.09
2023-01-29T21:21:28.039Z,102871.06
2023-01-29T21:23:55.808Z,102857.19
2023-01-29T21:26:23.989Z,102858.09
2023-01-29T21:28:51.653Z,102856.28
2023-01-29T21:31:19.475Z,102850.63
2023-01-29T21:33:47.492Z,102852.44
2023-01-29T21:36:18.014Z,102860.72
2023-01-29T21:38:47.244Z,102853.75
2023-01-29T21:41:15.825Z,102862.25
2023-01-29T21:43:46.424Z,102853.75
2023-01-29T21:46:17.143Z,102850.66
2023-01-29T21:48:45.704Z,102852.63
2023-01-29T21:51:13.313Z,102853.63
2023-01-29T21:53:41.303Z,102846.38
2023-01-29T21:56:09.509Z,102840.56
2023-01-29T21:58:37.019Z,102836.56
2023-01-29T22:01:28.023Z,102832.44
2023-01-29T22:03:52.358Z,102840.78
2023-01-29T22:06:23.147Z,102825.78
2023-01-29T22:08:51.101Z,102831.94
2023-01-29T22:11:19.585Z,102828.84
2023-01-29T22:13:47.802Z,102823.22
2023-01-29T22:16:15.601Z,102825.31
2023-01-29T22:18:43.377Z,102827.47
2023-01-29T22:21:11.097Z,102823.03
2023-01-29T22:23:42.315Z,102822.50
2023-01-29T22:26:11.394Z,102818.56
2023-01-29T22:28:38.794Z,102826.44
2023-01-29T22:31:06.254Z,102821.81
2023-01-29T22:33:34.956Z,102833.09
2023-01-29T22:36:02.772Z,102834.25
2023-01-29T22:38:31.692Z,102825.31
2023-01-29T22:41:01.544Z,102803.78
2023-01-29T22:43:29.551Z,102817.28
2023-01-29T22:45:58.759Z,102813.25
2023-01-29T22:48:27.618Z,102820.47
2023-01-29T22:51:12.173Z,102820.94
2023-01-29T22:53:42.618Z,102824.78
2023-01-29T22:56:11.461Z,102832.84
2023-01-29T22:58:39.147Z,102829.84
2023-01-29T23:01:06.688Z,102825.66
2023-01-29T23:03:34.988Z,102804.03
2023-01-29T23:06:04.952Z,102826.31
2023-01-29T23:08:34.093Z,102832.22
2023-01-29T23:11:16.165Z,102796.13
2023-01-29T23:13:45.454Z,102840.44
2023-01-29T23:16:14.758Z,102815.56
2023-01-29T23:18:46.218Z,102814.72
2023-01-29T23:21:13.442Z,102860.25
2023-01-29T23:23:40.820Z,102864.22
2023-01-29T23:26:29.144Z,102860.00
2023-01-29T23:28:58.729Z,102859.53
2023-01-29T23:31:26.468Z,102862.75
2023-01-29T23:33:53.806Z,102873.03
2023-01-29T23:36:21.081Z,102862.47
2023-01-29T23:38:48.309Z,102850.41
2023-01-29T23:41:15.933Z,102854.94
2023-01-29T23:43:43.277Z,102854.38
2023-01-29T23:46:10.374Z,102859.94
2023-01-29T23:48:38.082Z,102859.19
2023-01-29T23:51:05.523Z,102862.34
2023-01-29T23:53:32.763Z,102869.31
2023-01-29T23:56:03.700Z,102878.81
2023-01-29T23:58:32.727Z,102879.59
